createdAt,value
2019-03-20T00:00:27.294Z,0.00
2019-03-20T00:01:27.266Z,0.00
2019-03-20T00:02:27.235Z,0.00
2019-03-20T00:03:27.206Z,0.00
2019-03-20T00:04:27.174Z,0.00
2019-03-20T00:05:27.152Z,0.00
2019-03-20T00:06:27.116Z,0.00
2019-03-20T00:07:27.085Z,0.00
2019-03-20T00:08:27.055Z,0.00
2019-03-20T00:09:27.025Z,0.00
2019-03-20T00:10:26.998Z,0.00
2019-03-20T00:11:26.965Z,0.00
2019-03-20T00:12:26.935Z,0.00
2019-03-20T00:13:26.906Z,0.00
2019-03-20T00:14:26.877Z,0.00
2019-03-20T00:15:26.855Z,0.00
2019-03-20T00:16:26.815Z,0.00
2019-03-20T00:17:26.787Z,0.00
2019-03-20T00:18:26.759Z,0.00
2019-03-20T00:19:26.726Z,0.00
2019-03-20T00:20:26.697Z,0.00
2019-03-20T00:21:26.667Z,0.00
2019-03-20T00:22:26.637Z,0.00
2019-03-20T00:23:27.358Z,0.00
2019-03-20T00:24:26.578Z,0.00
2019-03-20T00:25:26.549Z,0.00
2019-03-20T00:26:26.519Z,0.00
2019-03-20T00:27:26.488Z,0.00
2019-03-20T00:28:26.458Z,0.00
2019-03-20T00:29:26.429Z,0.00
2019-03-20T00:30:26.398Z,0.00
2019-03-20T00:31:26.371Z,0.00
2019-03-20T00:32:26.339Z,4.00
2019-03-20T00:33:26.310Z,0.00
2019-03-20T00:34:26.279Z,0.00
2019-03-20T00:35:26.249Z,0.00
2019-03-20T00:36:26.219Z,0.00
2019-03-20T00:37:26.193Z,0.00
2019-03-20T00:38:26.161Z,0.00
2019-03-20T00:39:26.130Z,0.00
2019-03-20T00:40:26.101Z,0.00
2019-03-20T00:41:26.072Z,0.00
2019-03-20T00:42:26.042Z,0.00
2019-03-20T00:43:26.015Z,0.00
2019-03-20T00:44:25.982Z,0.00
2019-03-20T00:45:25.952Z,0.00
2019-03-20T00:46:25.923Z,0.00
2019-03-20T00:47:25.892Z,0.00
2019-03-20T00:48:25.862Z,0.00
2019-03-20T00:49:25.831Z,0.00
2019-03-20T00:50:25.802Z,0.00
2019-03-20T00:51:25.772Z,0.00
2019-03-20T00:52:25.741Z,0.00
2019-03-20T00:53:25.715Z,0.00
2019-03-20T00:54:25.686Z,0.00
2019-03-20T00:55:25.655Z,0.00
2019-03-20T00:56:25.621Z,0.00
2019-03-20T00:57:25.593Z,0.00
2019-03-20T00:58:25.563Z,0.00
2019-03-20T00:59:25.536Z,0.00
2019-03-20T01:00:25.507Z,0.00
2019-03-20T01:01:25.473Z,0.00
2019-03-20T01:02:25.442Z,0.00
2019-03-20T01:03:25.412Z,0.00
2019-03-20T01:04:25.383Z,0.00
2019-03-20T01:05:25.353Z,0.00
2019-03-20T01:06:25.323Z,0.00
2019-03-20T01:07:25.293Z,0.00
2019-03-20T01:08:25.265Z,0.00
2019-03-20T01:09:25.258Z,0.00
2019-03-20T01:10:25.203Z,0.00
2019-03-20T01:11:25.171Z,0.00
2019-03-20T01:12:25.143Z,0.00
2019-03-20T01:13:25.113Z,0.00
2019-03-20T01:14:25.083Z,0.00
2019-03-20T01:15:25.053Z,0.00
2019-03-20T01:16:25.023Z,0.00
2019-03-20T01:17:24.997Z,0.00
2019-03-20T01:18:24.963Z,0.00
2019-03-20T01:19:24.934Z,0.00
2019-03-20T01:20:24.904Z,0.00
2019-03-20T01:21:24.875Z,0.00
2019-03-20T01:22:24.844Z,0.00
2019-03-20T01:23:24.822Z,0.00
2019-03-20T01:24:24.784Z,0.00
2019-03-20T01:25:24.757Z,0.00
2019-03-20T01:26:24.728Z,0.00
2019-03-20T01:27:24.696Z,0.00
2019-03-20T01:28:24.665Z,0.00
2019-03-20T01:29:24.633Z,0.00
2019-03-20T01:30:24.604Z,0.00
2019-03-20T01:31:24.577Z,0.00
2019-03-20T01:32:24.544Z,0.00
2019-03-20T01:33:24.515Z,0.00
2019-03-20T01:34:24.484Z,0.00
2019-03-20T01:35:24.455Z,0.00
2019-03-20T01:36:24.424Z,0.00
2019-03-20T01:37:24.395Z,4.00
2019-03-20T01:38:24.365Z,0.00
2019-03-20T01:39:24.335Z,0.00
2019-03-20T01:40:24.305Z,0.00
2019-03-20T01:41:24.276Z,0.00
2019-03-20T01:42:25.094Z,0.00
2019-03-20T01:43:24.213Z,4.00
2019-03-20T01:44:24.185Z,0.00
2019-03-20T01:45:24.154Z,0.00
2019-03-20T01:46:24.125Z,0.00
2019-03-20T01:47:24.095Z,0.00
2019-03-20T01:48:24.814Z,0.00
2019-03-20T01:49:24.061Z,0.00
2019-03-20T01:50:24.006Z,0.00
2019-03-20T01:51:23.975Z,0.00
2019-03-20T01:52:23.945Z,0.00
2019-03-20T01:53:23.916Z,4.00
2019-03-20T01:54:23.886Z,4.00
2019-03-20T01:55:23.854Z,4.00
2019-03-20T01:56:23.824Z,4.00
2019-03-20T01:57:23.797Z,4.00
2019-03-20T01:58:23.766Z,4.00
2019-03-20T01:59:23.735Z,4.00
2019-03-20T02:00:23.704Z,4.00
2019-03-20T02:01:23.674Z,4.00
2019-03-20T02:02:23.646Z,4.00
2019-03-20T02:03:23.615Z,4.00
2019-03-20T02:04:23.585Z,4.00
2019-03-20T02:05:34.727Z,4.00
2019-03-20T02:06:23.524Z,4.00
2019-03-20T02:07:23.495Z,4.00
2019-03-20T02:08:23.465Z,4.00
2019-03-20T02:09:23.437Z,4.00
2019-03-20T02:10:23.405Z,4.00
2019-03-20T02:11:23.374Z,4.00
2019-03-20T02:12:23.345Z,4.00
2019-03-20T02:13:23.316Z,0.00
2019-03-20T02:14:23.285Z,0.00
2019-03-20T02:15:23.253Z,0.00
2019-03-20T02:16:23.225Z,0.00
2019-03-20T02:17:23.239Z,0.00
2019-03-20T02:18:23.166Z,0.00
2019-03-20T02:19:23.133Z,0.00
2019-03-20T02:20:23.852Z,0.00
2019-03-20T02:21:23.072Z,0.00
2019-03-20T02:22:23.043Z,0.00
2019-03-20T02:23:23.011Z,0.00
2019-03-20T02:24:22.982Z,0.00
2019-03-20T02:25:22.953Z,0.00
2019-03-20T02:26:22.921Z,0.00
2019-03-20T02:27:22.892Z,0.00
2019-03-20T02:28:22.861Z,0.00
2019-03-20T02:29:22.831Z,0.00
2019-03-20T02:30:22.816Z,0.00
2019-03-20T02:31:24.274Z,4.00
2019-03-20T02:32:22.745Z,4.00
2019-03-20T02:33:22.730Z,4.00
2019-03-20T02:34:22.699Z,4.00
2019-03-20T02:35:22.652Z,4.00
2019-03-20T02:36:22.643Z,4.00
2019-03-20T02:37:23.357Z,4.00
2019-03-20T02:38:22.582Z,4.00
2019-03-20T02:39:22.532Z,4.00
2019-03-20T02:40:22.503Z,4.00
2019-03-20T02:41:22.475Z,4.00
2019-03-20T02:42:22.444Z,4.00
2019-03-20T02:43:22.410Z,4.00
2019-03-20T02:44:22.381Z,4.00
2019-03-20T02:45:22.355Z,4.00
2019-03-20T02:46:22.415Z,4.00
2019-03-20T02:47:22.289Z,4.00
2019-03-20T02:48:22.258Z,4.00
2019-03-20T02:49:22.232Z,4.00
2019-03-20T02:50:22.201Z,4.00
2019-03-20T02:51:22.168Z,4.00
2019-03-20T02:52:22.138Z,4.00
2019-03-20T02:53:22.109Z,4.00
2019-03-20T02:54:22.081Z,4.00
2019-03-20T02:55:22.047Z,4.00
2019-03-20T02:56:22.024Z,4.00
2019-03-20T02:57:21.991Z,4.00
2019-03-20T02:58:21.965Z,4.00
2019-03-20T02:59:21.929Z,4.00
2019-03-20T03:00:21.904Z,4.00
2019-03-20T03:01:21.870Z,4.00
2019-03-20T03:02:21.837Z,4.00
2019-03-20T03:03:24.807Z,4.00
2019-03-20T03:04:21.782Z,4.00
2019-03-20T03:05:21.758Z,4.00
2019-03-20T03:06:21.716Z,4.00
2019-03-20T03:07:21.686Z,4.00
2019-03-20T03:08:21.653Z,4.00
2019-03-20T03:09:21.624Z,4.00
2019-03-20T03:10:21.595Z,4.00
2019-03-20T03:11:21.562Z,4.00
2019-03-20T03:12:21.530Z,4.00
2019-03-20T03:13:21.501Z,4.00
2019-03-20T03:14:21.472Z,4.00
2019-03-20T03:15:21.440Z,4.00
2019-03-20T03:16:21.412Z,4.00
2019-03-20T03:17:21.380Z,4.00
2019-03-20T03:18:21.353Z,4.00
2019-03-20T03:19:21.321Z,4.00
2019-03-20T03:20:22.144Z,4.00
2019-03-20T03:21:21.257Z,4.00
2019-03-20T03:22:21.230Z,4.00
2019-03-20T03:23:21.199Z,4.00
2019-03-20T03:24:21.169Z,4.00
2019-03-20T03:25:21.140Z,4.00
2019-03-20T03:26:21.113Z,4.00
2019-03-20T03:27:21.079Z,4.00
2019-03-20T03:28:21.045Z,4.00
2019-03-20T03:29:21.024Z,4.00
2019-03-20T03:30:21.005Z,4.00
2019-03-20T03:31:20.954Z,4.00
2019-03-20T03:32:20.928Z,4.00
2019-03-20T03:33:20.919Z,4.00
2019-03-20T03:34:20.885Z,0.00
2019-03-20T03:35:20.832Z,0.00
2019-03-20T03:36:21.949Z,0.00
2019-03-20T03:37:20.775Z,0.00
2019-03-20T03:38:20.741Z,0.00
2019-03-20T03:39:20.712Z,0.00
2019-03-20T03:40:20.680Z,0.00
2019-03-20T03:41:20.650Z,0.00
2019-03-20T03:42:20.621Z,4.00
2019-03-20T03:43:23.941Z,4.00
2019-03-20T03:44:20.561Z,4.00
2019-03-20T03:45:20.528Z,0.00
2019-03-20T03:46:20.500Z,0.00
2019-03-20T03:47:21.976Z,4.00
2019-03-20T03:48:20.437Z,4.00
2019-03-20T03:49:20.419Z,4.00
2019-03-20T03:50:20.377Z,0.00
2019-03-20T03:51:20.346Z,0.00
2019-03-20T03:52:20.316Z,0.00
2019-03-20T03:53:20.309Z,0.00
2019-03-20T03:54:20.257Z,0.00
2019-03-20T03:55:20.227Z,0.00
2019-03-20T03:56:20.192Z,0.00
2019-03-20T03:57:20.165Z,4.00
2019-03-20T03:58:20.132Z,4.00
2019-03-20T03:59:20.120Z,0.00
2019-03-20T04:00:20.070Z,0.00
2019-03-20T04:01:20.050Z,0.00
2019-03-20T04:02:20.011Z,0.00
2019-03-20T04:03:19.978Z,4.00
2019-03-20T04:04:19.950Z,0.00
2019-03-20T04:05:19.921Z,0.00
2019-03-20T04:06:19.889Z,0.00
2019-03-20T04:07:19.855Z,0.00
2019-03-20T04:08:19.826Z,0.00
2019-03-20T04:09:19.797Z,0.00
2019-03-20T04:10:19.770Z,0.00
2019-03-20T04:11:19.735Z,0.00
2019-03-20T04:12:19.717Z,0.00
2019-03-20T04:13:19.674Z,0.00
2019-03-20T04:14:19.652Z,0.00
2019-03-20T04:15:19.614Z,0.00
2019-03-20T04:16:19.582Z,0.00
2019-03-20T04:17:19.552Z,0.00
2019-03-20T04:18:19.520Z,4.00
2019-03-20T04:19:19.491Z,0.00
2019-03-20T04:20:20.962Z,0.00
2019-03-20T04:21:19.430Z,4.00
2019-03-20T04:22:19.411Z,0.00
2019-03-20T04:23:19.367Z,0.00
2019-03-20T04:24:19.338Z,0.00
2019-03-20T04:25:19.307Z,0.00
2019-03-20T04:26:19.276Z,0.00
2019-03-20T04:27:19.246Z,0.00
2019-03-20T04:28:19.215Z,0.00
2019-03-20T04:29:19.188Z,4.00
2019-03-20T04:30:19.155Z,0.00
2019-03-20T04:31:19.121Z,0.00
2019-03-20T04:32:19.091Z,4.00
2019-03-20T04:33:19.065Z,4.00
2019-03-20T04:34:19.052Z,4.00
2019-03-20T04:35:19.018Z,4.00
2019-03-20T04:36:18.971Z,4.00
2019-03-20T04:37:18.938Z,0.00
2019-03-20T04:38:18.908Z,4.00
2019-03-20T04:39:18.876Z,4.00
2019-03-20T04:40:18.846Z,4.00
2019-03-20T04:41:18.814Z,4.00
2019-03-20T04:42:18.784Z,4.00
2019-03-20T04:43:18.753Z,4.00
2019-03-20T04:44:18.720Z,4.00
2019-03-20T04:45:18.691Z,4.00
2019-03-20T04:46:18.662Z,4.00
2019-03-20T04:47:18.628Z,4.00
2019-03-20T04:48:18.597Z,4.00
2019-03-20T04:49:18.568Z,4.00
2019-03-20T04:50:18.537Z,4.00
2019-03-20T04:51:18.504Z,4.00
2019-03-20T04:52:18.475Z,4.00
2019-03-20T04:53:18.444Z,4.00
2019-03-20T04:54:18.421Z,4.00
2019-03-20T04:55:18.383Z,4.00
2019-03-20T04:56:18.351Z,4.00
2019-03-20T04:57:18.321Z,4.00
2019-03-20T04:58:19.041Z,4.00
2019-03-20T04:59:18.259Z,4.00
2019-03-20T05:00:18.230Z,0.00
2019-03-20T05:01:18.198Z,4.00
2019-03-20T05:02:18.166Z,4.00
2019-03-20T05:03:18.135Z,4.00
2019-03-20T05:04:18.106Z,4.00
2019-03-20T05:05:18.076Z,4.00
2019-03-20T05:06:18.044Z,8.00
2019-03-20T05:07:18.014Z,8.00
2019-03-20T05:08:17.981Z,8.00
2019-03-20T05:09:17.951Z,8.00
2019-03-20T05:10:17.920Z,12.00
2019-03-20T05:11:17.889Z,12.00
2019-03-20T05:12:17.866Z,16.00
2019-03-20T05:13:17.827Z,20.00
2019-03-20T05:14:17.800Z,20.00
2019-03-20T05:15:17.767Z,24.00
2019-03-20T05:16:17.738Z,32.00
2019-03-20T05:17:17.705Z,40.00
2019-03-20T05:18:17.674Z,44.00
2019-03-20T05:19:17.648Z,52.00
2019-03-20T05:20:17.611Z,64.00
2019-03-20T05:21:17.580Z,68.00
2019-03-20T05:22:17.553Z,80.00
2019-03-20T05:23:17.518Z,96.00
2019-03-20T05:24:18.237Z,112.00
2019-03-20T05:25:17.456Z,124.00
2019-03-20T05:26:17.424Z,144.00
2019-03-20T05:27:17.394Z,160.00
2019-03-20T05:28:17.363Z,184.00
2019-03-20T05:29:17.333Z,208.00
2019-03-20T05:30:17.332Z,232.00
2019-03-20T05:31:17.270Z,256.00
2019-03-20T05:32:19.587Z,284.00
2019-03-20T05:33:17.211Z,316.00
2019-03-20T05:34:17.178Z,344.00
2019-03-20T05:35:18.648Z,376.00
2019-03-20T05:36:17.119Z,412.00
2019-03-20T05:37:17.089Z,448.00
2019-03-20T05:38:17.056Z,452.00
2019-03-20T05:39:17.025Z,484.00
2019-03-20T05:40:16.993Z,520.00
2019-03-20T05:41:18.469Z,552.00
2019-03-20T05:42:16.933Z,576.00
2019-03-20T05:43:16.901Z,620.00
2019-03-20T05:44:16.871Z,708.00
2019-03-20T05:45:16.843Z,748.00
2019-03-20T05:46:16.809Z,784.00
2019-03-20T05:47:16.778Z,824.00
2019-03-20T05:48:16.746Z,860.00
2019-03-20T05:49:16.717Z,900.00
2019-03-20T05:50:16.688Z,940.00
2019-03-20T05:51:16.655Z,980.00
2019-03-20T05:52:16.625Z,1020.00
2019-03-20T05:53:16.595Z,1056.00
2019-03-20T05:54:16.569Z,1096.00
2019-03-20T05:55:16.539Z,1132.00
2019-03-20T05:56:16.503Z,1168.00
2019-03-20T05:57:16.473Z,1204.00
2019-03-20T05:58:16.441Z,1236.00
2019-03-20T05:59:16.410Z,1272.00
2019-03-20T06:00:16.380Z,1308.00
2019-03-20T06:01:16.348Z,1340.00
2019-03-20T06:02:16.319Z,1372.00
2019-03-20T06:03:16.287Z,1408.00
2019-03-20T06:04:16.257Z,1436.00
2019-03-20T06:05:16.226Z,1468.00
2019-03-20T06:06:16.196Z,1496.00
2019-03-20T06:07:21.565Z,1528.00
2019-03-20T06:08:16.136Z,1560.00
2019-03-20T06:09:16.104Z,1592.00
2019-03-20T06:10:16.073Z,1624.00
2019-03-20T06:11:16.043Z,1652.00
2019-03-20T06:12:16.012Z,1680.00
2019-03-20T06:13:15.981Z,1708.00
2019-03-20T06:14:15.950Z,1736.00
2019-03-20T06:15:15.924Z,1768.00
2019-03-20T06:16:15.895Z,1808.00
2019-03-20T06:17:15.860Z,1856.00
2019-03-20T06:18:15.829Z,1888.00
2019-03-20T06:19:15.797Z,1928.00
2019-03-20T06:20:15.768Z,1972.00
2019-03-20T06:21:15.737Z,2020.00
2019-03-20T06:22:15.706Z,2056.00
2019-03-20T06:23:15.675Z,2096.00
2019-03-20T06:24:15.645Z,2140.00
2019-03-20T06:25:15.620Z,2180.00
2019-03-20T06:26:15.584Z,2216.00
2019-03-20T06:27:15.553Z,2256.00
2019-03-20T06:28:15.523Z,12.00
2019-03-20T06:29:16.239Z,40.00
2019-03-20T06:30:15.460Z,848.00
2019-03-20T06:31:15.433Z,2276.00
2019-03-20T06:32:15.404Z,2448.00
2019-03-20T06:33:15.376Z,2528.00
2019-03-20T06:34:15.347Z,2496.00
2019-03-20T06:35:15.319Z,2416.00
2019-03-20T06:36:15.291Z,2444.00
2019-03-20T06:37:15.264Z,2476.00
2019-03-20T06:38:15.235Z,2504.00
2019-03-20T06:39:15.235Z,2520.00
2019-03-20T06:40:15.176Z,2560.00
2019-03-20T06:41:15.150Z,2608.00
2019-03-20T06:42:15.121Z,2640.00
2019-03-20T06:43:15.093Z,2672.00
2019-03-20T06:44:15.064Z,2704.00
2019-03-20T06:45:15.036Z,2732.00
2019-03-20T06:46:15.011Z,2756.00
2019-03-20T06:47:14.979Z,2784.00
2019-03-20T06:48:14.950Z,2808.00
2019-03-20T06:49:14.924Z,2824.00
2019-03-20T06:50:14.893Z,2852.00
2019-03-20T06:51:14.863Z,2872.00
2019-03-20T06:52:14.834Z,2892.00
2019-03-20T06:53:14.807Z,2912.00
2019-03-20T06:54:14.776Z,2928.00
2019-03-20T06:55:14.747Z,2936.00
2019-03-20T06:56:14.719Z,2948.00
2019-03-20T06:57:14.690Z,2964.00
2019-03-20T06:58:14.660Z,2992.00
2019-03-20T06:59:14.631Z,3016.00
2019-03-20T07:00:14.602Z,3140.00
2019-03-20T07:01:14.573Z,3068.00
2019-03-20T07:02:14.548Z,3056.00
2019-03-20T07:03:14.513Z,3076.00
2019-03-20T07:04:14.488Z,3096.00
2019-03-20T07:05:14.455Z,3140.00
2019-03-20T07:06:14.427Z,3152.00
2019-03-20T07:07:15.400Z,3148.00
2019-03-20T07:08:14.366Z,3228.00
2019-03-20T07:09:14.342Z,3176.00
2019-03-20T07:10:14.310Z,3184.00
2019-03-20T07:11:14.277Z,3208.00
2019-03-20T07:12:14.249Z,3236.00
2019-03-20T07:13:14.217Z,3236.00
2019-03-20T07:14:14.189Z,3304.00
2019-03-20T07:15:14.158Z,3276.00
2019-03-20T07:16:14.130Z,3352.00
2019-03-20T07:17:14.101Z,3352.00
2019-03-20T07:18:14.072Z,3312.00
2019-03-20T07:19:14.042Z,3328.00
2019-03-20T07:20:14.013Z,3348.00
2019-03-20T07:21:13.983Z,3356.00
2019-03-20T07:22:13.953Z,3368.00
2019-03-20T07:23:13.924Z,3384.00
2019-03-20T07:24:13.894Z,3456.00
2019-03-20T07:25:13.865Z,3408.00
2019-03-20T07:26:13.835Z,3412.00
2019-03-20T07:27:13.804Z,3432.00
2019-03-20T07:28:13.776Z,3436.00
2019-03-20T07:29:13.746Z,3528.00
2019-03-20T07:30:13.723Z,3464.00
2019-03-20T07:31:15.679Z,3456.00
2019-03-20T07:32:13.658Z,3476.00
2019-03-20T07:33:13.628Z,3476.00
2019-03-20T07:34:13.599Z,3500.00
2019-03-20T07:35:13.567Z,3508.00
2019-03-20T07:36:13.541Z,3500.00
2019-03-20T07:37:13.511Z,3528.00
2019-03-20T07:38:14.231Z,3548.00
2019-03-20T07:39:13.450Z,3556.00
2019-03-20T07:40:13.423Z,3560.00
2019-03-20T07:41:13.391Z,3568.00
2019-03-20T07:42:13.361Z,3588.00
2019-03-20T07:43:13.335Z,3600.00
2019-03-20T07:44:13.303Z,3608.00
2019-03-20T07:45:13.273Z,3608.00
2019-03-20T07:46:13.245Z,3620.00
2019-03-20T07:47:13.215Z,3616.00
2019-03-20T07:48:21.527Z,3624.00
2019-03-20T07:49:13.155Z,3632.00
2019-03-20T07:50:13.126Z,3632.00
2019-03-20T07:51:13.095Z,3648.00
2019-03-20T07:52:13.066Z,3664.00
2019-03-20T07:53:13.036Z,3680.00
2019-03-20T07:54:13.007Z,3672.00
2019-03-20T07:55:12.977Z,3684.00
2019-03-20T07:56:12.956Z,3676.00
2019-03-20T07:57:12.920Z,3684.00
2019-03-20T07:58:12.891Z,3680.00
2019-03-20T07:59:12.860Z,3684.00
2019-03-20T08:00:12.832Z,3700.00
2019-03-20T08:01:12.804Z,3712.00
2019-03-20T08:02:12.773Z,3712.00
2019-03-20T08:03:12.743Z,3720.00
2019-03-20T08:04:12.714Z,3744.00
2019-03-20T08:05:12.685Z,3728.00
2019-03-20T08:06:12.657Z,3752.00
2019-03-20T08:07:12.626Z,3748.00
2019-03-20T08:08:12.598Z,3756.00
2019-03-20T08:09:12.571Z,3768.00
2019-03-20T08:10:12.561Z,3760.00
2019-03-20T08:11:12.510Z,3752.00
2019-03-20T08:12:12.482Z,3776.00
2019-03-20T08:13:12.451Z,3792.00
2019-03-20T08:14:12.423Z,3788.00
2019-03-20T08:15:12.393Z,3804.00
2019-03-20T08:16:12.367Z,3864.00
2019-03-20T08:17:12.336Z,3800.00
2019-03-20T08:18:12.307Z,3792.00
2019-03-20T08:19:12.277Z,3788.00
2019-03-20T08:20:12.249Z,3800.00
2019-03-20T08:21:12.221Z,3784.00
2019-03-20T08:22:12.192Z,3836.00
2019-03-20T08:23:12.165Z,3800.00
2019-03-20T08:24:12.133Z,3804.00
2019-03-20T08:25:12.105Z,3796.00
2019-03-20T08:26:12.080Z,3804.00
2019-03-20T08:27:12.046Z,3816.00
2019-03-20T08:28:12.018Z,3824.00
2019-03-20T08:29:11.991Z,3816.00
2019-03-20T08:30:13.712Z,3828.00
2019-03-20T08:31:11.933Z,3812.00
2019-03-20T08:32:11.904Z,3824.00
2019-03-20T08:33:11.876Z,3828.00
2019-03-20T08:34:11.851Z,3824.00
2019-03-20T08:35:12.569Z,3820.00
2019-03-20T08:36:11.790Z,3820.00
2019-03-20T08:37:11.762Z,3832.00
2019-03-20T08:38:18.250Z,3816.00
2019-03-20T08:39:11.704Z,3836.00
2019-03-20T08:40:11.677Z,3812.00
2019-03-20T08:41:11.647Z,3836.00
2019-03-20T08:42:11.618Z,3816.00
2019-03-20T08:43:11.592Z,3828.00
2019-03-20T08:44:11.561Z,3816.00
2019-03-20T08:45:11.533Z,3828.00
2019-03-20T08:46:11.507Z,3840.00
2019-03-20T08:47:11.477Z,3828.00
2019-03-20T08:48:11.447Z,3860.00
2019-03-20T08:49:11.420Z,3840.00
2019-03-20T08:50:11.390Z,3864.00
2019-03-20T08:51:11.361Z,3864.00
2019-03-20T08:52:11.334Z,3864.00
2019-03-20T08:53:11.307Z,3872.00
2019-03-20T08:54:11.278Z,3852.00
2019-03-20T08:55:11.249Z,3868.00
2019-03-20T08:56:11.221Z,3876.00
2019-03-20T08:57:11.193Z,3876.00
2019-03-20T08:58:11.165Z,3888.00
2019-03-20T08:59:11.135Z,3872.00
2019-03-20T09:00:11.107Z,3872.00
2019-03-20T09:01:11.079Z,3900.00
2019-03-20T09:02:11.052Z,3884.00
2019-03-20T09:03:11.022Z,3876.00
2019-03-20T09:04:10.997Z,3888.00
2019-03-20T09:05:10.967Z,3880.00
2019-03-20T09:06:10.941Z,3860.00
2019-03-20T09:07:10.910Z,3872.00
2019-03-20T09:08:10.882Z,3864.00
2019-03-20T09:09:10.855Z,3848.00
2019-03-20T09:10:10.829Z,3852.00
2019-03-20T09:11:10.798Z,3860.00
2019-03-20T09:12:10.771Z,3872.00
2019-03-20T09:13:10.744Z,3860.00
2019-03-20T09:14:10.715Z,3864.00
2019-03-20T09:15:10.687Z,3872.00
2019-03-20T09:16:10.659Z,3868.00
2019-03-20T09:17:12.525Z,3848.00
2019-03-20T09:18:10.605Z,3864.00
2019-03-20T09:19:11.326Z,3864.00
2019-03-20T09:20:10.549Z,3872.00
2019-03-20T09:21:10.520Z,3876.00
2019-03-20T09:22:10.492Z,3880.00
2019-03-20T09:23:10.464Z,3880.00
2019-03-20T09:24:10.436Z,3880.00
2019-03-20T09:25:10.410Z,3884.00
2019-03-20T09:26:10.382Z,3876.00
2019-03-20T09:27:10.354Z,3880.00
2019-03-20T09:28:10.328Z,3872.00
2019-03-20T09:29:18.164Z,3860.00
2019-03-20T09:30:11.022Z,3852.00
2019-03-20T09:31:10.243Z,3856.00
2019-03-20T09:32:10.219Z,3852.00
2019-03-20T09:33:10.189Z,3880.00
2019-03-20T09:34:10.162Z,3876.00
2019-03-20T09:35:10.139Z,3888.00
2019-03-20T09:36:10.105Z,3880.00
2019-03-20T09:37:10.079Z,3884.00
2019-03-20T09:38:10.052Z,3868.00
2019-03-20T09:39:10.023Z,3852.00
2019-03-20T09:40:09.996Z,3856.00
2019-03-20T09:41:09.968Z,3880.00
2019-03-20T09:42:09.943Z,3872.00
2019-03-20T09:43:09.915Z,3892.00
2019-03-20T09:44:09.886Z,3892.00
2019-03-20T09:45:09.862Z,3888.00
2019-03-20T09:46:09.846Z,3896.00
2019-03-20T09:47:09.804Z,3884.00
2019-03-20T09:48:09.777Z,3888.00
2019-03-20T09:49:09.750Z,3872.00
2019-03-20T09:50:09.722Z,3864.00
2019-03-20T09:51:09.695Z,3888.00
2019-03-20T09:52:09.668Z,3880.00
2019-03-20T09:53:09.641Z,3864.00
2019-03-20T09:54:09.614Z,3848.00
2019-03-20T09:55:09.587Z,3848.00
2019-03-20T09:56:09.559Z,3856.00
2019-03-20T09:57:09.532Z,3848.00
2019-03-20T09:58:11.863Z,3840.00
2019-03-20T09:59:09.479Z,3852.00
2019-03-20T10:00:09.450Z,3808.00
2019-03-20T10:01:09.421Z,3856.00
2019-03-20T10:02:09.395Z,3856.00
2019-03-20T10:03:09.367Z,3856.00
2019-03-20T10:04:09.339Z,3836.00
2019-03-20T10:05:09.314Z,3864.00
2019-03-20T10:06:09.287Z,3864.00
2019-03-20T10:07:09.261Z,3844.00
2019-03-20T10:08:09.232Z,3876.00
2019-03-20T10:09:09.206Z,3884.00
2019-03-20T10:10:09.178Z,3828.00
2019-03-20T10:11:09.150Z,3900.00
2019-03-20T10:12:09.124Z,3880.00
2019-03-20T10:13:09.096Z,3852.00
2019-03-20T10:14:09.070Z,3880.00
2019-03-20T10:15:09.042Z,3852.00
2019-03-20T10:16:09.019Z,3836.00
2019-03-20T10:17:08.990Z,3976.00
2019-03-20T10:18:08.964Z,3844.00
2019-03-20T10:19:08.935Z,3844.00
2019-03-20T10:20:08.907Z,3856.00
2019-03-20T10:21:08.913Z,3856.00
2019-03-20T10:22:08.855Z,3880.00
2019-03-20T10:23:08.826Z,3868.00
2019-03-20T10:24:08.801Z,3844.00
2019-03-20T10:25:08.776Z,3852.00
2019-03-20T10:26:08.748Z,3856.00
2019-03-20T10:27:08.720Z,3872.00
2019-03-20T10:28:08.693Z,3888.00
2019-03-20T10:29:08.667Z,3872.00
2019-03-20T10:30:08.643Z,3820.00
2019-03-20T10:31:08.613Z,3844.00
2019-03-20T10:32:08.586Z,3864.00
2019-03-20T10:33:08.559Z,3896.00
2019-03-20T10:34:08.533Z,3872.00
2019-03-20T10:35:08.507Z,3872.00
2019-03-20T10:36:08.480Z,3848.00
2019-03-20T10:37:08.454Z,3860.00
2019-03-20T10:38:08.427Z,3852.00
2019-03-20T10:39:08.448Z,3872.00
2019-03-20T10:40:08.374Z,3868.00
2019-03-20T10:41:08.347Z,3852.00
2019-03-20T10:42:08.323Z,3868.00
2019-03-20T10:43:08.294Z,3884.00
2019-03-20T10:44:08.269Z,3892.00
2019-03-20T10:45:08.249Z,3880.00
2019-03-20T10:46:08.215Z,3876.00
2019-03-20T10:47:08.207Z,3876.00
2019-03-20T10:48:08.167Z,3864.00
2019-03-20T10:49:08.134Z,3860.00
2019-03-20T10:50:08.113Z,3868.00
2019-03-20T10:51:08.081Z,3860.00
2019-03-20T10:52:08.057Z,3864.00
2019-03-20T10:53:08.029Z,3896.00
2019-03-20T10:54:08.003Z,3900.00
2019-03-20T10:55:07.975Z,3892.00
2019-03-20T10:56:07.955Z,3896.00
2019-03-20T10:57:07.923Z,3908.00
2019-03-20T10:58:07.897Z,3884.00
2019-03-20T10:59:07.871Z,3868.00
2019-03-20T11:00:07.843Z,3848.00
2019-03-20T11:01:07.818Z,3880.00
2019-03-20T11:02:07.792Z,3916.00
2019-03-20T11:03:07.765Z,3900.00
2019-03-20T11:04:07.756Z,3928.00
2019-03-20T11:05:07.717Z,3920.00
2019-03-20T11:06:07.690Z,3928.00
2019-03-20T11:07:07.662Z,3904.00
2019-03-20T11:08:07.639Z,3896.00
2019-03-20T11:09:17.762Z,3888.00
2019-03-20T11:10:09.084Z,3896.00
2019-03-20T11:11:07.555Z,3892.00
2019-03-20T11:12:07.529Z,3908.00
2019-03-20T11:13:07.516Z,3912.00
2019-03-20T11:14:07.477Z,3904.00
2019-03-20T11:15:07.451Z,3888.00
2019-03-20T11:16:08.175Z,3884.00
2019-03-20T11:17:07.398Z,3888.00
2019-03-20T11:18:07.395Z,3888.00
2019-03-20T11:19:07.368Z,3884.00
2019-03-20T11:20:07.327Z,3856.00
2019-03-20T11:21:07.295Z,3848.00
2019-03-20T11:22:17.957Z,3868.00
2019-03-20T11:23:07.243Z,3856.00
2019-03-20T11:24:07.217Z,3860.00
2019-03-20T11:25:07.192Z,3840.00
2019-03-20T11:26:07.166Z,3828.00
2019-03-20T11:27:07.897Z,3824.00
2019-03-20T11:28:07.113Z,3812.00
2019-03-20T11:29:07.092Z,3812.00
2019-03-20T11:30:07.062Z,3808.00
2019-03-20T11:31:07.044Z,3804.00
2019-03-20T11:32:07.010Z,3788.00
2019-03-20T11:33:06.983Z,3792.00
2019-03-20T11:34:06.958Z,3812.00
2019-03-20T11:35:06.932Z,3848.00
2019-03-20T11:36:06.906Z,3812.00
2019-03-20T11:37:06.881Z,3804.00
2019-03-20T11:38:09.108Z,3804.00
2019-03-20T11:39:06.829Z,3744.00
2019-03-20T11:40:06.804Z,3780.00
2019-03-20T11:41:06.777Z,3788.00
2019-03-20T11:42:06.752Z,3780.00
2019-03-20T11:43:06.727Z,3780.00
2019-03-20T11:44:06.700Z,3744.00
2019-03-20T11:45:06.675Z,3772.00
2019-03-20T11:46:06.649Z,3800.00
2019-03-20T11:47:06.623Z,3800.00
2019-03-20T11:48:06.596Z,3792.00
2019-03-20T11:49:06.572Z,3808.00
2019-03-20T11:50:06.546Z,3808.00
2019-03-20T11:51:06.522Z,3840.00
2019-03-20T11:52:06.497Z,3832.00
2019-03-20T11:53:06.473Z,3836.00
2019-03-20T11:54:06.444Z,3820.00
2019-03-20T11:55:06.417Z,3812.00
2019-03-20T11:56:06.392Z,3816.00
2019-03-20T11:57:06.365Z,3800.00
2019-03-20T11:58:06.341Z,3780.00
2019-03-20T11:59:06.314Z,3768.00
2019-03-20T12:00:06.289Z,3776.00
2019-03-20T12:01:06.266Z,3792.00
2019-03-20T12:02:06.236Z,3804.00
2019-03-20T12:03:06.211Z,3804.00
2019-03-20T12:04:06.197Z,3760.00
2019-03-20T12:05:06.160Z,3800.00
2019-03-20T12:06:06.135Z,3768.00
2019-03-20T12:07:06.109Z,3756.00
2019-03-20T12:08:06.085Z,3784.00
2019-03-20T12:09:06.058Z,3804.00
2019-03-20T12:10:06.033Z,3824.00
2019-03-20T12:11:06.009Z,3812.00
2019-03-20T12:12:05.981Z,3820.00
2019-03-20T12:13:05.957Z,3816.00
2019-03-20T12:14:05.930Z,3828.00
2019-03-20T12:15:05.904Z,3868.00
2019-03-20T12:16:05.879Z,3844.00
2019-03-20T12:17:05.853Z,3856.00
2019-03-20T12:18:05.832Z,3868.00
2019-03-20T12:19:05.801Z,3892.00
2019-03-20T12:20:05.775Z,3900.00
2019-03-20T12:21:05.750Z,3876.00
2019-03-20T12:22:05.731Z,3924.00
2019-03-20T12:23:05.700Z,3944.00
2019-03-20T12:24:05.677Z,3940.00
2019-03-20T12:25:05.649Z,3964.00
2019-03-20T12:26:05.623Z,3984.00
2019-03-20T12:27:14.534Z,3972.00
2019-03-20T12:28:05.573Z,4024.00
2019-03-20T12:29:05.548Z,4036.00
2019-03-20T12:30:05.523Z,4048.00
2019-03-20T12:31:06.693Z,4088.00
2019-03-20T12:32:05.471Z,4068.00
2019-03-20T12:33:05.445Z,4080.00
2019-03-20T12:34:05.420Z,4080.00
2019-03-20T12:35:05.399Z,4072.00